createdAt,value
2023-02-23T00:02:17.099Z,69.10
2023-02-23T00:05:24.529Z,68.00
2023-02-23T00:08:32.155Z,66.10
2023-02-23T00:11:39.346Z,67.60
2023-02-23T00:14:46.711Z,65.90
2023-02-23T00:17:54.400Z,67.50
2023-02-23T00:21:01.426Z,68.00
2023-02-23T00:24:09.279Z,69.80
2023-02-23T00:27:16.434Z,62.10
2023-02-23T00:30:23.488Z,70.30
2023-02-23T00:33:31.289Z,65.30
2023-02-23T00:36:39.197Z,70.00
2023-02-23T00:39:46.141Z,68.10
2023-02-23T00:42:53.519Z,66.20
2023-02-23T00:46:01.019Z,65.30
2023-02-23T00:49:08.334Z,69.90
2023-02-23T00:52:16.153Z,67.00
2023-02-23T00:55:23.456Z,73.80
2023-02-23T00:58:30.654Z,69.20
2023-02-23T01:01:38.146Z,69.90
2023-02-23T01:04:45.326Z,75.10
2023-02-23T01:07:52.642Z,73.40
2023-02-23T01:10:59.802Z,72.70
2023-02-23T01:14:07.702Z,76.10
2023-02-23T01:17:14.810Z,70.70
2023-02-23T01:20:21.913Z,73.60
2023-02-23T01:23:29.771Z,71.80
2023-02-23T01:26:37.069Z,80.80
2023-02-23T01:29:44.470Z,74.60
2023-02-23T01:32:48.143Z,78.50
2023-02-23T01:35:55.660Z,74.80
2023-02-23T01:39:03.834Z,83.30
2023-02-23T01:42:11.844Z,85.10
2023-02-23T01:45:19.206Z,86.90
2023-02-23T01:48:27.161Z,83.20
2023-02-23T01:51:35.177Z,88.60
2023-02-23T01:54:42.552Z,89.20
2023-02-23T01:57:50.566Z,84.90
2023-02-23T02:00:58.263Z,83.90
2023-02-23T02:04:05.933Z,83.60
2023-02-23T02:07:14.032Z,88.90
2023-02-23T02:10:21.732Z,78.30
2023-02-23T02:13:29.416Z,94.20
2023-02-23T02:16:37.171Z,95.10
2023-02-23T02:19:45.020Z,85.60
2023-02-23T02:22:52.765Z,89.50
2023-02-23T02:26:00.422Z,84.50
2023-02-23T02:29:08.338Z,91.20
2023-02-23T02:32:16.185Z,86.80
2023-02-23T02:35:23.977Z,88.50
2023-02-23T02:38:31.988Z,89.20
2023-02-23T02:41:39.682Z,97.00
2023-02-23T02:44:47.146Z,84.90
2023-02-23T02:47:54.960Z,93.10
2023-02-23T02:51:02.178Z,87.60
2023-02-23T02:54:10.301Z,89.10
2023-02-23T02:57:18.384Z,90.10
2023-02-23T03:00:25.688Z,89.90
2023-02-23T03:03:33.648Z,94.10
2023-02-23T03:06:41.166Z,88.10
2023-02-23T03:09:49.286Z,98.10
2023-02-23T03:12:56.945Z,103.40
2023-02-23T03:16:04.564Z,94.00
2023-02-23T03:19:12.227Z,108.70
2023-02-23T03:22:19.844Z,90.40
2023-02-23T03:25:27.627Z,90.00
2023-02-23T03:28:35.308Z,94.40
2023-02-23T03:31:43.081Z,88.70
2023-02-23T03:34:50.428Z,84.30
2023-02-23T03:37:58.540Z,86.00
2023-02-23T03:41:05.841Z,92.30
2023-02-23T03:44:13.810Z,100.60
2023-02-23T03:47:21.574Z,93.10
2023-02-23T03:50:29.278Z,97.60
2023-02-23T03:53:37.533Z,90.00
2023-02-23T03:56:45.229Z,95.60
2023-02-23T03:59:52.893Z,94.80
2023-02-23T04:03:00.780Z,97.80
2023-02-23T04:06:08.425Z,92.10
2023-02-23T04:09:16.164Z,91.30
2023-02-23T04:12:23.804Z,98.90
2023-02-23T04:15:31.244Z,106.00
2023-02-23T04:18:39.285Z,102.70
2023-02-23T04:21:46.700Z,105.70
2023-02-23T04:24:54.422Z,109.20
2023-02-23T04:28:02.465Z,107.50
2023-02-23T04:31:09.798Z,130.00
2023-02-23T04:34:17.537Z,100.10
2023-02-23T04:37:25.151Z,105.40
2023-02-23T04:40:32.926Z,112.70
2023-02-23T04:43:40.749Z,110.90
2023-02-23T04:46:48.901Z,103.10
2023-02-23T04:49:56.679Z,100.10
2023-02-23T04:53:04.500Z,113.70
2023-02-23T04:56:11.853Z,93.40
2023-02-23T04:59:19.681Z,102.60
2023-02-23T05:02:27.461Z,109.10
2023-02-23T05:05:35.168Z,117.30
2023-02-23T05:08:43.105Z,99.80
2023-02-23T05:11:50.595Z,100.40
2023-02-23T05:14:58.325Z,106.10
2023-02-23T05:18:06.151Z,97.20
2023-02-23T05:21:13.754Z,114.20
2023-02-23T05:24:21.007Z,102.70
2023-02-23T05:27:28.928Z,114.40
2023-02-23T05:30:36.791Z,107.20
2023-02-23T05:33:43.978Z,110.80
2023-02-23T05:36:51.721Z,100.10
2023-02-23T05:39:59.308Z,99.30
2023-02-23T05:43:07.089Z,102.20
2023-02-23T05:46:15.177Z,100.40
2023-02-23T05:49:22.817Z,131.50
2023-02-23T05:52:30.421Z,100.90
2023-02-23T05:55:38.428Z,96.40
2023-02-23T05:58:46.569Z,103.60
2023-02-23T06:01:54.367Z,103.00
2023-02-23T06:05:02.001Z,102.20
2023-02-23T06:08:10.169Z,96.90
2023-02-23T06:11:17.977Z,95.30
2023-02-23T06:14:25.925Z,108.90
2023-02-23T06:17:34.076Z,113.20
2023-02-23T06:20:41.429Z,102.70
2023-02-23T06:23:49.597Z,115.80
2023-02-23T06:26:57.546Z,125.90
2023-02-23T06:30:04.947Z,112.40
2023-02-23T06:33:12.977Z,123.00
2023-02-23T06:36:21.753Z,127.60
2023-02-23T06:39:29.520Z,128.50
2023-02-23T06:42:37.918Z,146.00
2023-02-23T06:45:45.793Z,128.30
2023-02-23T06:48:53.450Z,126.20
2023-02-23T06:52:01.609Z,121.70
2023-02-23T06:55:09.401Z,114.80
2023-02-23T06:58:17.101Z,127.40
2023-02-23T07:01:24.890Z,126.70
2023-02-23T07:04:32.788Z,128.20
2023-02-23T07:07:40.859Z,139.00
2023-02-23T07:10:48.730Z,159.50
2023-02-23T07:13:56.220Z,140.20
2023-02-23T07:17:04.362Z,156.70
2023-02-23T07:20:12.270Z,143.60
2023-02-23T07:23:20.020Z,151.90
2023-02-23T07:26:27.819Z,147.00
2023-02-23T07:29:35.863Z,157.90
2023-02-23T07:32:44.195Z,161.50
2023-02-23T07:35:51.680Z,149.40
2023-02-23T07:38:59.383Z,154.10
2023-02-23T07:42:07.309Z,138.00
2023-02-23T07:45:15.229Z,142.70
2023-02-23T07:48:22.995Z,145.70
2023-02-23T07:51:31.030Z,150.50
2023-02-23T07:54:38.460Z,132.50
2023-02-23T07:57:46.594Z,121.00
2023-02-23T08:00:54.864Z,127.50
2023-02-23T08:04:02.326Z,123.10
2023-02-23T08:07:10.426Z,120.60
2023-02-23T08:10:18.628Z,120.90
2023-02-23T08:13:26.152Z,119.30
2023-02-23T08:16:34.217Z,125.90
2023-02-23T08:19:41.850Z,122.70
2023-02-23T08:22:50.164Z,114.60
2023-02-23T08:25:58.273Z,125.00
2023-02-23T08:29:05.991Z,105.30
2023-02-23T08:32:14.385Z,110.00
2023-02-23T08:35:22.637Z,108.80
2023-02-23T08:38:30.345Z,103.40
2023-02-23T08:41:38.293Z,99.10
2023-02-23T08:44:46.389Z,102.10
2023-02-23T08:47:54.198Z,93.60
2023-02-23T08:51:02.145Z,89.90
2023-02-23T08:54:10.005Z,87.10
2023-02-23T08:57:18.247Z,84.30
2023-02-23T09:00:26.066Z,83.10
2023-02-23T09:03:36.486Z,86.40
2023-02-23T09:06:34.297Z,79.80
2023-02-23T09:09:41.910Z,73.50
2023-02-23T09:12:49.672Z,70.80
2023-02-23T09:15:57.421Z,74.20
2023-02-23T09:19:05.328Z,74.50
2023-02-23T09:22:13.348Z,73.00
2023-02-23T09:25:21.376Z,68.60
2023-02-23T09:28:30.230Z,68.80
2023-02-23T09:31:39.271Z,67.30
2023-02-23T09:34:47.418Z,70.80
2023-02-23T09:37:54.818Z,69.20
2023-02-23T09:41:02.813Z,72.80
2023-02-23T09:44:10.852Z,63.20
2023-02-23T09:47:18.171Z,66.00
2023-02-23T09:50:26.541Z,66.60
2023-02-23T09:53:34.351Z,67.10
2023-02-23T09:56:42.725Z,66.90
2023-02-23T09:59:50.327Z,71.50
2023-02-23T10:02:58.075Z,67.60
2023-02-23T10:06:05.897Z,68.40
2023-02-23T10:09:13.388Z,71.50
2023-02-23T10:12:21.513Z,71.30
2023-02-23T10:15:29.279Z,71.30
2023-02-23T10:18:46.677Z,69.20
2023-02-23T10:21:42.725Z,68.80
2023-02-23T10:24:50.732Z,72.50
2023-02-23T10:27:58.368Z,71.70
2023-02-23T10:31:06.406Z,68.10
2023-02-23T10:34:13.761Z,71.70
2023-02-23T10:37:21.742Z,73.00
2023-02-23T10:40:30.144Z,68.70
2023-02-23T10:43:37.601Z,70.80
2023-02-23T10:46:45.492Z,69.20
2023-02-23T10:49:53.288Z,70.30
2023-02-23T10:53:00.647Z,69.00
2023-02-23T10:56:08.809Z,63.80
2023-02-23T10:59:16.616Z,68.20
2023-02-23T11:02:24.604Z,63.60
2023-02-23T11:05:32.723Z,65.30
2023-02-23T11:08:40.392Z,61.60
2023-02-23T11:11:48.057Z,60.00
2023-02-23T11:14:55.945Z,63.20
2023-02-23T11:18:03.728Z,58.50
2023-02-23T11:21:11.378Z,59.60
2023-02-23T11:24:19.101Z,65.30
2023-02-23T11:27:27.071Z,63.90
2023-02-23T11:30:34.700Z,64.40
2023-02-23T11:33:42.374Z,64.90
2023-02-23T11:36:50.423Z,68.40
2023-02-23T11:39:57.837Z,71.10
2023-02-23T11:43:05.953Z,74.70
2023-02-23T11:46:14.210Z,79.40
2023-02-23T11:49:21.648Z,80.60
2023-02-23T11:52:29.925Z,80.60
2023-02-23T11:55:37.798Z,86.90
2023-02-23T11:58:45.777Z,93.80
2023-02-23T12:01:53.870Z,82.90
2023-02-23T12:05:01.770Z,84.40
2023-02-23T12:08:09.525Z,80.70
2023-02-23T12:11:17.248Z,84.60
2023-02-23T12:14:25.145Z,78.20
2023-02-23T12:17:32.946Z,81.00
2023-02-23T12:20:40.623Z,82.80
2023-02-23T12:23:49.586Z,82.20
2023-02-23T12:26:58.187Z,84.20
2023-02-23T12:30:08.677Z,74.50
2023-02-23T12:33:17.256Z,72.30
2023-02-23T12:36:24.578Z,73.10
2023-02-23T12:39:33.106Z,60.00
2023-02-23T12:42:41.258Z,58.00
2023-02-23T12:45:48.787Z,51.10
2023-02-23T12:48:56.783Z,52.10
2023-02-23T12:52:04.511Z,49.10
2023-02-23T12:55:12.276Z,50.30
2023-02-23T12:58:20.578Z,50.30
2023-02-23T13:01:28.303Z,51.90
2023-02-23T13:04:35.986Z,49.90
2023-02-23T13:07:43.641Z,54.00
2023-02-23T13:10:51.876Z,51.90
2023-02-23T13:13:59.327Z,50.60
2023-02-23T13:17:07.205Z,53.50
2023-02-23T13:20:15.243Z,58.40
2023-02-23T13:23:22.610Z,55.30
2023-02-23T13:26:30.619Z,57.80
2023-02-23T13:29:38.522Z,66.90
2023-02-23T13:32:46.261Z,54.20
2023-02-23T13:35:54.253Z,54.90
2023-02-23T13:39:05.045Z,57.20
2023-02-23T13:42:06.643Z,53.10
2023-02-23T13:45:14.570Z,51.70
2023-02-23T13:48:22.232Z,49.40
2023-02-23T13:51:30.043Z,46.40
2023-02-23T13:54:37.814Z,47.00
2023-02-23T13:57:45.786Z,44.40
2023-02-23T14:00:53.756Z,42.70
2023-02-23T14:04:01.985Z,43.50
2023-02-23T14:07:10.194Z,39.30
2023-02-23T14:10:17.476Z,40.40
2023-02-23T14:13:25.544Z,41.50
2023-02-23T14:16:33.311Z,37.80
2023-02-23T14:19:40.652Z,35.20
2023-02-23T14:22:48.605Z,45.10
2023-02-23T14:25:57.388Z,44.50
2023-02-23T14:29:05.251Z,45.60
2023-02-23T14:32:13.314Z,46.20
2023-02-23T14:35:21.264Z,45.60
2023-02-23T14:38:38.812Z,44.30
2023-02-23T14:41:33.898Z,52.80
2023-02-23T14:44:41.908Z,55.30
2023-02-23T14:47:49.788Z,56.10
2023-02-23T14:50:59.873Z,54.10
2023-02-23T14:53:58.690Z,55.30
2023-02-23T14:57:06.738Z,57.40
2023-02-23T15:00:14.167Z,59.10
2023-02-23T15:03:22.336Z,61.80
2023-02-23T15:06:29.948Z,61.60
2023-02-23T15:09:37.998Z,65.90
2023-02-23T15:12:46.526Z,71.80
2023-02-23T15:15:54.196Z,66.10
2023-02-23T15:19:01.976Z,69.90
2023-02-23T15:22:09.720Z,66.50
2023-02-23T15:25:17.739Z,63.80
2023-02-23T15:28:25.576Z,76.70
2023-02-23T15:31:33.159Z,69.20
2023-02-23T15:34:41.594Z,70.70
2023-02-23T15:37:55.403Z,68.90
2023-02-23T15:40:54.333Z,65.90
2023-02-23T15:44:02.434Z,64.80
2023-02-23T15:47:09.896Z,73.30
2023-02-23T15:50:22.000Z,67.90
2023-02-23T15:53:22.854Z,75.50
2023-02-23T15:56:30.921Z,84.90
2023-02-23T15:59:39.084Z,82.60
2023-02-23T16:02:46.794Z,75.20
2023-02-23T16:05:54.698Z,78.30
2023-02-23T16:09:02.489Z,63.40
2023-02-23T16:12:10.651Z,60.30
2023-02-23T16:15:18.520Z,70.20
2023-02-23T16:18:25.931Z,74.20
2023-02-23T16:21:34.064Z,80.30
2023-02-23T16:24:41.439Z,80.90
2023-02-23T16:27:50.231Z,82.80
2023-02-23T16:30:58.383Z,93.90
2023-02-23T16:34:05.988Z,82.00
2023-02-23T16:37:14.470Z,99.10
2023-02-23T16:40:22.907Z,106.70
2023-02-23T16:43:30.476Z,108.20
2023-02-23T16:46:38.951Z,101.60
2023-02-23T16:49:46.969Z,99.70
2023-02-23T16:52:54.904Z,99.60
2023-02-23T16:56:02.745Z,101.20
2023-02-23T16:59:10.395Z,102.10
2023-02-23T17:02:18.498Z,103.80
2023-02-23T17:05:26.059Z,118.80
2023-02-23T17:08:34.182Z,110.70
2023-02-23T17:11:42.015Z,108.90
2023-02-23T17:14:49.775Z,116.10
2023-02-23T17:17:58.154Z,122.20
2023-02-23T17:21:06.026Z,130.20
2023-02-23T17:24:13.889Z,107.90
2023-02-23T17:27:22.086Z,115.90
2023-02-23T17:30:29.455Z,99.90
2023-02-23T17:33:37.572Z,95.50
2023-02-23T17:36:45.635Z,112.80
2023-02-23T17:39:52.944Z,123.80
2023-02-23T17:43:01.159Z,108.40
2023-02-23T17:46:09.294Z,135.80
2023-02-23T17:49:16.553Z,120.20
2023-02-23T17:52:24.620Z,100.90
2023-02-23T17:55:32.962Z,87.90
2023-02-23T17:58:40.429Z,91.40
2023-02-23T18:01:48.845Z,90.30
2023-02-23T18:04:56.780Z,79.60
2023-02-23T18:08:04.665Z,85.90
2023-02-23T18:11:12.473Z,79.90
2023-02-23T18:14:20.338Z,72.00
2023-02-23T18:17:28.512Z,69.00
2023-02-23T18:20:36.145Z,66.90
2023-02-23T18:23:44.017Z,75.10
2023-02-23T18:26:52.575Z,79.20
2023-02-23T18:29:59.917Z,76.90
2023-02-23T18:33:07.953Z,73.30
2023-02-23T18:36:17.124Z,82.80
2023-02-23T18:39:25.347Z,63.70
2023-02-23T18:42:33.628Z,70.30
2023-02-23T18:45:42.588Z,63.90
2023-02-23T18:48:50.060Z,72.60
2023-02-23T18:51:57.769Z,78.50
2023-02-23T18:55:05.730Z,94.60
2023-02-23T18:58:14.111Z,90.90
2023-02-23T19:01:22.481Z,103.90
2023-02-23T19:04:30.419Z,115.80
2023-02-23T19:07:38.169Z,140.60
2023-02-23T19:10:46.595Z,151.00
2023-02-23T19:13:54.312Z,167.40
2023-02-23T19:17:02.324Z,165.90
2023-02-23T19:20:10.329Z,184.40
2023-02-23T19:23:18.112Z,194.20
2023-02-23T19:26:25.949Z,214.50
2023-02-23T19:29:33.956Z,221.60
2023-02-23T19:32:42.602Z,216.30
2023-02-23T19:35:50.494Z,214.70
2023-02-23T19:38:58.275Z,214.00
2023-02-23T19:42:06.168Z,226.70
2023-02-23T19:45:14.287Z,237.50
2023-02-23T19:48:22.369Z,242.60
2023-02-23T19:51:30.970Z,272.70
2023-02-23T19:54:38.873Z,228.80
2023-02-23T19:57:46.258Z,212.50
2023-02-23T20:00:54.093Z,239.10
2023-02-23T20:04:01.648Z,230.10
2023-02-23T20:07:09.740Z,235.10
2023-02-23T20:10:17.852Z,236.00
2023-02-23T20:13:25.329Z,218.90
2023-02-23T20:16:33.380Z,251.00
2023-02-23T20:19:41.967Z,225.60
2023-02-23T20:22:49.622Z,217.10
2023-02-23T20:25:57.885Z,218.90
2023-02-23T20:29:05.366Z,226.00
2023-02-23T20:32:13.291Z,232.70
2023-02-23T20:35:20.994Z,233.40
2023-02-23T20:38:28.661Z,235.70
2023-02-23T20:41:36.641Z,215.40
2023-02-23T20:44:44.308Z,224.30
2023-02-23T20:47:52.325Z,220.20
2023-02-23T20:51:00.442Z,214.40
2023-02-23T20:54:00.575Z,247.00
2023-02-23T20:57:08.714Z,246.30
2023-02-23T21:00:16.924Z,262.40
2023-02-23T21:03:24.629Z,245.20
2023-02-23T21:06:32.518Z,272.30
2023-02-23T21:09:40.254Z,278.90
2023-02-23T21:12:47.711Z,235.10
2023-02-23T21:15:55.690Z,245.40
2023-02-23T21:19:03.064Z,246.80
2023-02-23T21:22:11.092Z,139.20
2023-02-23T21:25:19.705Z,88.90
2023-02-23T21:28:27.044Z,71.70
2023-02-23T21:31:35.338Z,49.40
2023-02-23T21:34:43.742Z,45.50
2023-02-23T21:37:51.309Z,34.80
2023-02-23T21:40:59.208Z,35.30
2023-02-23T21:44:07.226Z,42.30
2023-02-23T21:47:14.750Z,41.80
2023-02-23T21:50:23.206Z,31.20
2023-02-23T21:53:30.936Z,47.80
2023-02-23T21:56:38.898Z,28.60
2023-02-23T21:59:47.117Z,27.80
2023-02-23T22:02:55.122Z,35.50
2023-02-23T22:06:03.046Z,21.10
2023-02-23T22:09:11.676Z,27.60
2023-02-23T22:12:20.722Z,30.80
2023-02-23T22:15:30.288Z,34.80
2023-02-23T22:18:38.288Z,38.20
2023-02-23T22:21:46.945Z,32.40
2023-02-23T22:24:55.229Z,30.50
2023-02-23T22:28:02.850Z,29.60
2023-02-23T22:31:11.118Z,34.90
2023-02-23T22:34:19.529Z,43.30
2023-02-23T22:37:27.033Z,39.10
2023-02-23T22:40:35.017Z,37.60
2023-02-23T22:43:42.817Z,33.10
2023-02-23T22:46:51.014Z,34.60
2023-02-23T22:49:59.453Z,33.20
2023-02-23T22:53:07.411Z,38.30
2023-02-23T22:56:15.592Z,33.70
2023-02-23T22:59:24.114Z,23.20
2023-02-23T23:02:32.167Z,32.70
2023-02-23T23:05:40.112Z,31.80
2023-02-23T23:08:48.060Z,33.50
2023-02-23T23:11:56.811Z,31.80
2023-02-23T23:15:04.557Z,24.60
2023-02-23T23:18:12.444Z,32.30
2023-02-23T23:21:21.157Z,30.20
2023-02-23T23:24:29.366Z,35.10
2023-02-23T23:27:37.166Z,28.80
2023-02-23T23:30:45.621Z,27.40
2023-02-23T23:33:53.713Z,26.10
2023-02-23T23:37:01.636Z,32.80
2023-02-23T23:40:10.127Z,29.10
2023-02-23T23:43:17.890Z,31.20
2023-02-23T23:46:26.173Z,30.30
2023-02-23T23:49:34.396Z,31.20
2023-02-23T23:52:42.604Z,30.60
2023-02-23T23:55:50.796Z,29.50
2023-02-23T23:58:58.800Z,34.00
